Time;durP1;ratioP1;P1;durP2;ratioP2;P2;SDS_P1;SDS_P2;PMS_P1;PMS_P2;Temp;Humidity;BMP_temperature;BMP_pressure;BME280_temperature;BME280_humidity;BME280_pressure;Samples;Min_cycle;Max_cycle;Signal;HPM_P1;HPM_P2
2022/07/13 00:02:25;;;;;;;;;;;21.50;80.00;;;;;;5034005;28;19920;-52
2022/07/13 00:05:10;;;;;;;;;;;21.50;80.50;;;;;;5033880;28;20010;-51
2022/07/13 00:07:54;;;;;;;;;;;21.40;80.40;;;;;;5013947;28;19925;-53
2022/07/13 00:10:38;;;;;;;;;;;21.30;78.90;;;;;;5001150;28;20372;-50
2022/07/13 00:13:23;;;;;;;;;;;21.20;78.50;;;;;;5034302;28;19990;-55
2022/07/13 00:16:07;;;;;;;;;;;21.10;78.10;;;;;;5033284;28;19939;-55
2022/07/13 00:18:51;;;;;;;;;;;21.00;78.20;;;;;;5018138;28;20427;-56
2022/07/13 00:21:35;;;;;;;;;;;21.10;79.50;;;;;;5033610;28;19920;-56
2022/07/13 00:24:19;;;;;;;;;;;21.10;81.20;;;;;;5033182;28;19916;-51
2022/07/13 00:27:04;;;;;;;;;;;21.20;81.70;;;;;;5033060;28;19932;-54
2022/07/13 00:29:48;;;;;;;;;;;21.30;81.90;;;;;;5033989;28;19916;-53
2022/07/13 00:32:32;;;;;;;;;;;21.30;81.90;;;;;;5034139;28;19955;-58
2022/07/13 00:35:16;;;;;;;;;;;21.10;80.00;;;;;;5033786;28;20283;-52
2022/07/13 00:38:00;;;;;;;;;;;20.80;79.90;;;;;;5033438;28;19962;-54
2022/07/13 00:40:44;;;;;;;;;;;20.60;80.10;;;;;;5033633;28;19924;-51
2022/07/13 00:43:29;;;;;;;;;;;20.50;80.30;;;;;;5034005;28;20304;-52
2022/07/13 00:46:14;;;;;;;;;;;20.40;81.10;;;;;;5028903;28;19924;-54
2022/07/13 00:48:58;;;;;;;;;;;20.60;82.00;;;;;;5032922;28;19971;-53
2022/07/13 00:51:42;;;;;;;;;;;20.80;82.10;;;;;;5033169;28;19920;-54
2022/07/13 00:54:30;;;;;;;;;;;20.80;80.00;;;;;;5031875;28;19912;-56
2022/07/13 00:57:15;;;;;;;;;;;20.80;78.40;;;;;;5031504;28;19979;-55
2022/07/13 00:59:59;;;;;;;;;;;20.80;78.70;;;;;;5032157;28;19931;-51
2022/07/13 01:02:45;;;;;;;;;;;20.90;78.80;;;;;;5031708;28;19919;-53
2022/07/13 01:05:30;;;;;;;;;;;20.90;77.90;;;;;;5030718;28;19979;-55
2022/07/13 01:08:14;;;;;;;;;;;20.90;77.20;;;;;;5031943;28;20055;-55
2022/07/13 01:10:58;;;;;;;;;;;20.90;77.60;;;;;;5032498;28;19959;-55
2022/07/13 01:13:43;;;;;;;;;;;20.80;78.00;;;;;;5032460;28;20383;-55
2022/07/13 01:16:28;;;;;;;;;;;20.60;78.40;;;;;;5031462;28;20375;-55
2022/07/13 01:19:12;;;;;;;;;;;20.50;78.40;;;;;;5033534;28;19996;-54
2022/07/13 01:21:59;;;;;;;;;;;20.40;78.40;;;;;;5033497;28;19920;-54
2022/07/13 01:24:44;;;;;;;;;;;20.40;78.30;;;;;;5036150;28;19931;-56
2022/07/13 01:27:28;;;;;;;;;;;20.40;77.90;;;;;;5035256;28;19920;-55
2022/07/13 01:30:13;;;;;;;;;;;20.50;77.90;;;;;;5032454;28;19931;-55
2022/07/13 01:32:57;;;;;;;;;;;20.60;77.70;;;;;;5033040;28;19932;-54
2022/07/13 01:35:41;;;;;;;;;;;20.70;78.10;;;;;;5016669;28;19971;-54
2022/07/13 01:38:25;;;;;;;;;;;20.80;77.90;;;;;;5031865;28;19916;-58
2022/07/13 01:41:10;;;;;;;;;;;20.80;77.80;;;;;;5032106;28;19935;-51
2022/07/13 01:43:56;;;;;;;;;;;20.80;77.80;;;;;;5032578;28;20411;-55
2022/07/13 01:46:41;;;;;;;;;;;20.90;77.50;;;;;;5012141;28;20377;-52
2022/07/13 01:49:25;;;;;;;;;;;20.90;77.60;;;;;;5013956;28;19912;-54
2022/07/13 01:52:09;;;;;;;;;;;20.90;77.40;;;;;;5032599;28;20363;-55
2022/07/13 01:54:53;;;;;;;;;;;20.90;77.40;;;;;;5032408;28;19979;-51
2022/07/13 01:57:38;;;;;;;;;;;20.80;77.80;;;;;;5032446;28;20000;-56
2022/07/13 02:00:22;;;;;;;;;;;20.70;77.20;;;;;;5017106;28;19967;-53
2022/07/13 02:03:07;;;;;;;;;;;20.70;77.70;;;;;;5032637;28;19932;-52
2022/07/13 02:05:51;;;;;;;;;;;20.70;78.40;;;;;;5031660;28;19924;-56
2022/07/13 02:08:36;;;;;;;;;;;20.60;78.70;;;;;;5031860;28;19955;-55
2022/07/13 02:11:20;;;;;;;;;;;20.60;79.40;;;;;;5032505;28;19971;-53
2022/07/13 02:14:04;;;;;;;;;;;20.50;80.00;;;;;;5032404;28;19993;-52
2022/07/13 02:16:48;;;;;;;;;;;20.40;80.50;;;;;;5031915;28;19939;-53
2022/07/13 02:19:32;;;;;;;;;;;20.30;80.60;;;;;;5036355;28;19916;-54
2022/07/13 02:22:16;;;;;;;;;;;20.30;80.80;;;;;;5016238;28;19963;-54
2022/07/13 02:25:00;;;;;;;;;;;20.10;82.20;;;;;;5020723;28;19963;-53
2022/07/13 02:27:46;;;;;;;;;;;20.10;82.10;;;;;;5036796;28;20000;-55
2022/07/13 02:30:30;;;;;;;;;;;20.10;81.90;;;;;;5037547;28;19924;-53
2022/07/13 02:33:14;;;;;;;;;;;20.10;81.70;;;;;;5035749;28;19962;-51
2022/07/13 02:35:58;;;;;;;;;;;20.20;82.00;;;;;;5035571;28;19972;-53
2022/07/13 02:38:42;;;;;;;;;;;20.20;81.80;;;;;;5036038;28;19920;-53
2022/07/13 02:41:27;;;;;;;;;;;20.20;81.90;;;;;;5036016;28;20108;-55
2022/07/13 02:44:11;;;;;;;;;;;20.30;81.60;;;;;;5036262;28;19984;-54
2022/07/13 02:46:55;;;;;;;;;;;20.30;82.30;;;;;;5035971;28;19940;-51
2022/07/13 02:49:40;;;;;;;;;;;20.30;83.30;;;;;;5035488;28;19924;-53
2022/07/13 02:52:25;;;;;;;;;;;20.30;83.00;;;;;;5035450;28;19920;-55
2022/07/13 02:55:09;;;;;;;;;;;20.30;82.80;;;;;;5033824;28;19920;-52
2022/07/13 02:57:53;;;;;;;;;;;20.30;82.70;;;;;;5034568;28;19912;-53
2022/07/13 03:00:37;;;;;;;;;;;20.10;82.50;;;;;;5021637;28;19912;-50
2022/07/13 03:03:21;;;;;;;;;;;20.00;82.70;;;;;;5020367;28;19944;-53
2022/07/13 03:06:05;;;;;;;;;;;19.70;83.60;;;;;;5035296;28;20446;-50
2022/07/13 03:08:50;;;;;;;;;;;19.60;83.50;;;;;;5035718;28;19919;-53
2022/07/13 03:11:34;;;;;;;;;;;19.50;83.80;;;;;;5035147;28;20012;-54
2022/07/13 03:14:18;;;;;;;;;;;19.60;83.50;;;;;;5035622;28;19920;-52
2022/07/13 03:17:02;;;;;;;;;;;19.70;83.60;;;;;;5035178;28;19912;-56
2022/07/13 03:19:46;;;;;;;;;;;19.90;83.40;;;;;;5038296;28;19915;-53
2022/07/13 03:22:31;;;;;;;;;;;20.00;83.00;;;;;;5039960;28;19916;-54
2022/07/13 03:25:15;;;;;;;;;;;20.10;82.60;;;;;;5040062;28;19932;-53
2022/07/13 03:27:59;;;;;;;;;;;20.20;82.70;;;;;;5039638;28;19914;-55
2022/07/13 03:30:43;;;;;;;;;;;20.30;82.60;;;;;;5022027;28;19924;-54
2022/07/13 03:33:28;;;;;;;;;;;20.30;82.60;;;;;;5035269;28;19920;-51
2022/07/13 03:36:12;;;;;;;;;;;20.30;82.40;;;;;;5035619;28;20271;-53
2022/07/13 03:38:56;;;;;;;;;;;20.30;81.90;;;;;;5034619;28;19933;-53
2022/07/13 03:41:41;;;;;;;;;;;20.20;82.10;;;;;;5033962;28;19963;-55
2022/07/13 03:44:25;;;;;;;;;;;20.20;82.40;;;;;;5034758;28;19995;-55
2022/07/13 03:47:09;;;;;;;;;;;20.30;82.70;;;;;;5034269;28;19998;-53
2022/07/13 03:49:53;;;;;;;;;;;20.30;82.50;;;;;;5033817;28;20007;-53
2022/07/13 03:52:37;;;;;;;;;;;20.40;82.70;;;;;;5034022;28;19916;-52
2022/07/13 03:55:22;;;;;;;;;;;20.40;82.60;;;;;;5035293;28;19972;-53
2022/07/13 03:58:07;;;;;;;;;;;20.50;82.30;;;;;;5035491;28;19912;-55
2022/07/13 04:00:51;;;;;;;;;;;20.50;82.20;;;;;;5034720;28;20576;-56
2022/07/13 04:03:35;;;;;;;;;;;20.50;82.00;;;;;;5034414;28;19925;-52
2022/07/13 04:06:19;;;;;;;;;;;20.50;82.60;;;;;;5033724;28;19916;-55
2022/07/13 04:09:04;;;;;;;;;;;20.60;82.20;;;;;;5033632;28;19936;-55
2022/07/13 04:11:48;;;;;;;;;;;20.60;82.30;;;;;;5015174;28;20336;-59
2022/07/13 04:14:33;;;;;;;;;;;20.60;82.30;;;;;;5030163;28;19916;-58
2022/07/13 04:17:17;;;;;;;;;;;20.60;82.70;;;;;;5038519;28;19966;-55
2022/07/13 04:20:01;;;;;;;;;;;20.60;82.90;;;;;;5038873;28;19971;-56
2022/07/13 04:22:45;;;;;;;;;;;20.40;82.80;;;;;;5035068;28;19912;-53
2022/07/13 04:25:29;;;;;;;;;;;20.20;83.00;;;;;;5033105;28;19927;-55
2022/07/13 04:28:14;;;;;;;;;;;20.10;84.00;;;;;;5018757;28;20407;-52
2022/07/13 04:30:58;;;;;;;;;;;20.00;84.00;;;;;;5013298;28;20051;-55
2022/07/13 04:33:42;;;;;;;;;;;20.00;84.40;;;;;;5015947;28;19921;-52
2022/07/13 04:36:26;;;;;;;;;;;20.00;84.60;;;;;;5033541;28;19962;-55
2022/07/13 04:39:12;;;;;;;;;;;20.10;84.60;;;;;;5033399;28;20030;-50
2022/07/13 04:41:56;;;;;;;;;;;20.10;84.80;;;;;;5184854;22;20024;-55
2022/07/13 04:44:40;;;;;;;;;;;20.20;84.10;;;;;;4991637;28;19928;-55
2022/07/13 04:47:25;;;;;;;;;;;20.10;83.40;;;;;;4993452;28;20021;-55
2022/07/13 04:50:09;;;;;;;;;;;20.10;83.30;;;;;;5016188;28;20123;-55
2022/07/13 04:52:53;;;;;;;;;;;20.30;83.30;;;;;;5000368;28;19920;-54
2022/07/13 04:55:37;;;;;;;;;;;20.40;83.00;;;;;;4974680;28;19928;-53
2022/07/13 04:58:22;;;;;;;;;;;20.50;83.00;;;;;;5009864;28;19963;-52
2022/07/13 05:01:07;;;;;;;;;;;20.60;83.20;;;;;;5012107;28;19916;-55
2022/07/13 05:03:52;;;;;;;;;;;20.70;83.10;;;;;;5013990;28;20013;-55
2022/07/13 05:06:36;;;;;;;;;;;20.80;83.00;;;;;;4999713;28;19917;-57
2022/07/13 05:09:21;;;;;;;;;;;20.90;82.90;;;;;;5001625;28;19921;-49
2022/07/13 05:12:05;;;;;;;;;;;21.00;82.60;;;;;;5013691;28;19956;-53
2022/07/13 05:14:50;;;;;;;;;;;21.00;82.20;;;;;;5005336;28;19915;-48
2022/07/13 05:17:34;;;;;;;;;;;21.00;82.50;;;;;;5013285;28;20304;-52
2022/07/13 05:20:18;;;;;;;;;;;21.00;82.20;;;;;;4998316;28;19916;-48
2022/07/13 05:23:03;;;;;;;;;;;21.10;82.30;;;;;;5005901;28;20068;-57
2022/07/13 05:25:47;;;;;;;;;;;21.10;82.50;;;;;;4993757;28;19976;-55
2022/07/13 05:28:31;;;;;;;;;;;21.10;82.80;;;;;;4993798;28;20001;-54
2022/07/13 05:31:15;;;;;;;;;;;21.20;83.10;;;;;;4994085;28;20328;-53
2022/07/13 05:34:00;;;;;;;;;;;21.20;83.60;;;;;;5012057;28;20387;-54
2022/07/13 05:36:44;;;;;;;;;;;21.20;83.40;;;;;;5011128;28;19916;-57
2022/07/13 05:39:29;;;;;;;;;;;21.30;83.70;;;;;;4984345;28;19921;-55
2022/07/13 05:42:13;;;;;;;;;;;21.30;83.30;;;;;;5010305;28;19920;-53
2022/07/13 05:44:57;;;;;;;;;;;21.30;82.60;;;;;;4991483;28;20043;-57
2022/07/13 05:47:48;;;;;;;;;;;21.30;82.30;;;;;;4994805;28;20374;-54
2022/07/13 05:50:32;;;;;;;;;;;21.30;82.50;;;;;;4993706;28;19913;-58
2022/07/13 05:53:19;;;;;;;;;;;21.40;83.00;;;;;;5000312;28;20020;-52
2022/07/13 05:56:03;;;;;;;;;;;21.30;82.70;;;;;;4986528;28;19967;-53
2022/07/13 05:58:47;;;;;;;;;;;21.20;83.10;;;;;;5019651;28;20376;-52
2022/07/13 06:01:31;;;;;;;;;;;21.30;83.30;;;;;;5013116;28;19968;-54
2022/07/13 06:04:16;;;;;;;;;;;21.30;83.30;;;;;;4998722;28;20381;-55
2022/07/13 06:07:01;;;;;;;;;;;21.40;83.80;;;;;;5022387;28;19920;-54
2022/07/13 06:09:45;;;;;;;;;;;21.40;84.50;;;;;;5007661;28;19920;-52
2022/07/13 06:12:29;;;;;;;;;;;21.50;84.30;;;;;;4999926;28;19952;-55
2022/07/13 06:15:13;;;;;;;;;;;21.70;84.40;;;;;;5009211;28;19924;-54
2022/07/13 06:17:58;;;;;;;;;;;21.70;83.00;;;;;;5007666;28;19964;-51
2022/07/13 06:20:42;;;;;;;;;;;21.70;83.50;;;;;;5000892;28;20290;-51
2022/07/13 06:23:26;;;;;;;;;;;21.60;83.30;;;;;;5014616;28;20396;-55
2022/07/13 06:26:10;;;;;;;;;;;21.60;83.40;;;;;;5019711;28;19916;-55
2022/07/13 06:28:55;;;;;;;;;;;21.70;83.30;;;;;;5000728;28;20273;-54
2022/07/13 06:31:39;;;;;;;;;;;21.70;83.20;;;;;;5011541;28;20108;-56
2022/07/13 06:34:23;;;;;;;;;;;21.90;83.20;;;;;;5018566;28;19917;-54
2022/07/13 06:37:07;;;;;;;;;;;22.10;83.00;;;;;;5002170;28;20332;-54
2022/07/13 06:39:52;;;;;;;;;;;22.20;82.80;;;;;;4999838;28;20006;-56
2022/07/13 06:42:36;;;;;;;;;;;22.30;82.60;;;;;;5006402;28;19993;-57
2022/07/13 06:45:23;;;;;;;;;;;22.40;82.40;;;;;;4993237;28;19924;-53
2022/07/13 06:48:07;;;;;;;;;;;22.40;82.30;;;;;;4998772;28;20016;-57
2022/07/13 06:50:52;;;;;;;;;;;22.40;82.30;;;;;;5003412;28;19912;-56
2022/07/13 06:53:36;;;;;;;;;;;22.50;82.70;;;;;;5019387;28;19916;-57
2022/07/13 06:56:23;;;;;;;;;;;22.60;82.70;;;;;;5012044;28;19916;-55
2022/07/13 06:59:07;;;;;;;;;;;22.70;82.40;;;;;;5016299;28;19924;-55
2022/07/13 07:01:52;;;;;;;;;;;22.80;82.20;;;;;;5003810;28;19956;-54
2022/07/13 07:04:36;;;;;;;;;;;23.00;81.90;;;;;;5008920;28;20332;-55
2022/07/13 07:07:20;;;;;;;;;;;23.00;81.90;;;;;;5013081;28;20486;-53
2022/07/13 07:10:05;;;;;;;;;;;23.20;82.00;;;;;;5016012;28;20120;-56
2022/07/13 07:12:49;;;;;;;;;;;23.20;81.40;;;;;;4983392;28;19993;-55
2022/07/13 07:15:33;;;;;;;;;;;23.20;81.80;;;;;;4996079;28;19917;-58
2022/07/13 07:18:18;;;;;;;;;;;23.40;82.10;;;;;;4993929;28;20005;-55
2022/07/13 07:21:02;;;;;;;;;;;23.70;81.50;;;;;;5002380;28;19908;-56
2022/07/13 07:23:47;;;;;;;;;;;23.70;80.80;;;;;;5015124;28;19920;-53
2022/07/13 07:26:31;;;;;;;;;;;23.90;80.90;;;;;;5003197;28;19920;-54
2022/07/13 07:29:15;;;;;;;;;;;23.90;80.70;;;;;;5008486;28;20018;-51
2022/07/13 07:32:01;;;;;;;;;;;24.00;80.90;;;;;;5000725;28;19916;-56
2022/07/13 07:34:45;;;;;;;;;;;23.90;82.00;;;;;;4994623;28;19917;-54
2022/07/13 07:37:33;;;;;;;;;;;24.00;82.20;;;;;;5011653;28;19967;-56
2022/07/13 07:40:17;;;;;;;;;;;24.10;81.00;;;;;;5014261;28;20384;-57
2022/07/13 07:43:01;;;;;;;;;;;24.20;80.20;;;;;;4986123;28;20369;-56
2022/07/13 07:45:45;;;;;;;;;;;24.10;80.00;;;;;;4997036;28;19932;-56
2022/07/13 07:48:30;;;;;;;;;;;24.20;80.40;;;;;;5026293;28;19940;-56
2022/07/13 07:51:14;;;;;;;;;;;24.30;80.60;;;;;;5010893;28;20345;-56
2022/07/13 07:53:58;;;;;;;;;;;24.30;80.30;;;;;;4992800;28;20407;-52
2022/07/13 07:56:42;;;;;;;;;;;24.30;80.20;;;;;;4993624;28;20353;-56
2022/07/13 07:59:27;;;;;;;;;;;24.40;80.70;;;;;;4993694;28;19916;-55
2022/07/13 08:02:11;;;;;;;;;;;24.50;80.20;;;;;;4994173;28;19924;-52
2022/07/13 08:04:55;;;;;;;;;;;24.40;78.70;;;;;;4992077;28;20321;-53
2022/07/13 08:07:44;;;;;;;;;;;24.40;78.60;;;;;;4991419;28;19933;-58
2022/07/13 08:10:28;;;;;;;;;;;24.60;78.20;;;;;;4991425;28;20333;-54
2022/07/13 08:13:13;;;;;;;;;;;24.70;77.60;;;;;;5001223;28;20233;-57
2022/07/13 08:15:57;;;;;;;;;;;24.80;77.30;;;;;;4995356;28;19915;-55
2022/07/13 08:18:41;;;;;;;;;;;25.00;76.40;;;;;;5019102;28;19936;-54
2022/07/13 08:21:26;;;;;;;;;;;25.00;76.40;;;;;;5002179;28;19916;-58
2022/07/13 08:24:10;;;;;;;;;;;25.20;75.80;;;;;;4995444;28;19964;-54
2022/07/13 08:26:55;;;;;;;;;;;25.10;75.50;;;;;;4995337;28;19952;-55
2022/07/13 08:29:40;;;;;;;;;;;25.10;75.70;;;;;;4999662;28;19963;-49
2022/07/13 08:32:24;;;;;;;;;;;25.10;76.00;;;;;;4995303;28;19916;-54
2022/07/13 08:41:15;;;;;;;;;;;25.40;74.80;;;;;;5015502;28;19963;-51
2022/07/13 08:44:00;;;;;;;;;;;25.50;75.10;;;;;;5002150;28;20404;-55
2022/07/13 08:46:44;;;;;;;;;;;25.60;73.80;;;;;;5007709;28;19917;-56
2022/07/13 08:49:29;;;;;;;;;;;25.80;73.60;;;;;;4994733;28;20269;-53
2022/07/13 08:52:13;;;;;;;;;;;25.70;73.40;;;;;;4993557;28;19920;-55
2022/07/13 08:54:58;;;;;;;;;;;25.70;72.70;;;;;;4996341;28;19937;-55
2022/07/13 08:57:42;;;;;;;;;;;25.80;72.80;;;;;;4992718;28;20350;-55
2022/07/13 09:00:26;;;;;;;;;;;25.90;72.30;;;;;;4985900;28;20353;-51
2022/07/13 09:03:11;;;;;;;;;;;25.90;72.30;;;;;;4993780;28;20004;-52
2022/07/13 09:05:55;;;;;;;;;;;26.00;72.40;;;;;;5008440;28;19936;-53
2022/07/13 09:08:43;;;;;;;;;;;26.10;72.60;;;;;;4996378;28;19917;-57
2022/07/13 09:11:27;;;;;;;;;;;26.10;72.80;;;;;;5005781;28;19920;-54
2022/07/13 09:14:22;;;;;;;;;;;26.20;72.40;;;;;;5011761;28;19924;-56
2022/07/13 09:17:06;;;;;;;;;;;26.00;72.50;;;;;;5013422;28;19912;-49
2022/07/13 09:19:50;;;;;;;;;;;26.20;71.80;;;;;;4998153;28;19956;-54
2022/07/13 09:22:44;;;;;;;;;;;26.30;71.80;;;;;;4995854;28;19967;-52
2022/07/13 09:25:33;;;;;;;;;;;26.30;72.70;;;;;;4974162;28;20355;-53
2022/07/13 09:28:17;;;;;;;;;;;26.50;72.30;;;;;;4985843;28;19956;-48
2022/07/13 09:31:01;;;;;;;;;;;26.70;71.30;;;;;;4992671;28;19916;-49
2022/07/13 09:33:46;;;;;;;;;;;26.90;70.40;;;;;;4988991;28;20395;-50
2022/07/13 09:36:30;;;;;;;;;;;27.20;70.70;;;;;;4993543;28;19959;-53
2022/07/13 09:39:14;;;;;;;;;;;27.40;68.80;;;;;;4995685;28;19936;-55
2022/07/13 09:41:58;;;;;;;;;;;27.60;69.30;;;;;;4994089;28;19917;-52
2022/07/13 09:47:57;;;;;;;;;;;27.60;68.30;;;;;;4993810;28;20280;-55
2022/07/13 09:50:41;;;;;;;;;;;27.70;67.60;;;;;;4992033;28;19980;-51
2022/07/13 09:53:27;;;;;;;;;;;27.60;66.00;;;;;;5000995;28;20285;-51
2022/07/13 09:56:12;;;;;;;;;;;27.70;65.30;;;;;;5013173;28;19912;-55
2022/07/13 09:58:58;;;;;;;;;;;27.70;65.80;;;;;;5003298;28;19916;-50
2022/07/13 10:01:45;;;;;;;;;;;27.70;65.00;;;;;;4991342;28;19921;-52
2022/07/13 10:04:29;;;;;;;;;;;27.80;66.10;;;;;;4987438;28;19924;-57
2022/07/13 10:07:14;;;;;;;;;;;27.70;63.30;;;;;;4991646;28;19933;-57
2022/07/13 10:09:58;;;;;;;;;;;27.50;62.80;;;;;;4992726;28;19921;-53
2022/07/13 10:12:43;;;;;;;;;;;27.50;63.50;;;;;;4993435;28;19933;-54
2022/07/13 10:15:27;;;;;;;;;;;27.60;64.40;;;;;;4984886;28;20384;-49
2022/07/13 10:18:12;;;;;;;;;;;27.30;64.00;;;;;;5005291;28;20152;-54
2022/07/13 10:21:09;;;;;;;;;;;27.30;64.60;;;;;;4993497;28;19913;-48
2022/07/13 10:23:53;;;;;;;;;;;27.30;65.40;;;;;;4992817;28;19940;-51
2022/07/13 10:26:37;;;;;;;;;;;27.30;65.50;;;;;;4992021;28;20152;-51
2022/07/13 10:29:24;;;;;;;;;;;27.30;63.60;;;;;;5004835;28;19976;-54
2022/07/13 10:32:09;;;;;;;;;;;27.20;62.90;;;;;;5006145;28;20005;-50
2022/07/13 10:34:57;;;;;;;;;;;27.10;62.50;;;;;;4991814;28;20012;-49
2022/07/13 10:37:56;;;;;;;;;;;27.00;62.20;;;;;;4974392;28;19912;-49
2022/07/13 10:40:40;;;;;;;;;;;27.10;63.00;;;;;;4977328;28;20348;-54
2022/07/13 10:43:25;;;;;;;;;;;26.90;63.50;;;;;;4988308;28;19967;-55
2022/07/13 10:46:09;;;;;;;;;;;27.00;63.70;;;;;;5000137;28;19981;-54
2022/07/13 10:48:53;;;;;;;;;;;27.30;63.90;;;;;;5004386;28;19979;-51
2022/07/13 10:51:38;;;;;;;;;;;27.40;64.00;;;;;;4995423;28;20001;-53
2022/07/13 10:54:22;;;;;;;;;;;27.60;64.00;;;;;;4994458;28;19917;-51
2022/07/13 10:57:14;;;;;;;;;;;27.70;63.50;;;;;;4999019;28;20068;-53
2022/07/13 11:00:01;;;;;;;;;;;27.70;62.90;;;;;;4998154;28;20395;-54
2022/07/13 11:02:48;;;;;;;;;;;27.70;63.00;;;;;;5012039;28;19916;-52
2022/07/13 11:05:36;;;;;;;;;;;27.70;62.80;;;;;;4994064;28;20455;-51
2022/07/13 11:08:28;;;;;;;;;;;27.80;62.80;;;;;;4996419;28;20530;-51
2022/07/13 11:11:14;;;;;;;;;;;28.00;63.20;;;;;;4995903;28;19932;-51
2022/07/13 11:13:58;;;;;;;;;;;28.20;63.80;;;;;;4994656;28;20001;-55
2022/07/13 11:16:47;;;;;;;;;;;28.40;63.40;;;;;;4989837;28;19973;-53
2022/07/13 11:19:50;;;;;;;;;;;28.60;63.60;;;;;;4991144;28;19987;-57
2022/07/13 11:25:40;;;;;;;;;;;28.90;61.60;;;;;;4994330;28;19944;-54
2022/07/13 11:28:24;;;;;;;;;;;28.80;61.30;;;;;;4991493;28;19964;-57
2022/07/13 11:31:11;;;;;;;;;;;28.80;61.40;;;;;;4991034;28;19916;-53
2022/07/13 11:33:56;;;;;;;;;;;28.90;61.70;;;;;;4994824;28;19937;-53
2022/07/13 11:36:42;;;;;;;;;;;28.70;61.10;;;;;;4993117;28;19917;-55
2022/07/13 11:39:30;;;;;;;;;;;28.90;61.40;;;;;;4999257;28;19976;-55
2022/07/13 11:42:14;;;;;;;;;;;29.00;60.10;;;;;;4999669;28;19915;-55
2022/07/13 11:44:59;;;;;;;;;;;29.00;59.90;;;;;;4994850;28;19929;-53
2022/07/13 11:47:44;;;;;;;;;;;29.10;60.10;;;;;;4999160;28;19920;-52
2022/07/13 11:50:48;;;;;;;;;;;29.40;58.60;;;;;;4993122;28;19925;-54
2022/07/13 11:53:32;;;;;;;;;;;29.40;59.30;;;;;;4991880;28;20668;-49
2022/07/13 11:56:16;;;;;;;;;;;29.30;58.90;;;;;;4994011;28;20020;-53
2022/07/13 11:59:01;;;;;;;;;;;29.20;59.70;;;;;;5013058;28;19920;-52
2022/07/13 12:01:50;;;;;;;;;;;29.10;59.10;;;;;;4993644;28;19959;-51
2022/07/13 12:04:37;;;;;;;;;;;29.40;59.50;;;;;;5007183;28;19925;-53
2022/07/13 12:07:28;;;;;;;;;;;29.70;57.20;;;;;;4994126;28;19964;-50
2022/07/13 12:10:13;;;;;;;;;;;29.80;56.30;;;;;;5009229;28;19962;-52
2022/07/13 12:12:57;;;;;;;;;;;29.80;56.10;;;;;;4987624;28;20005;-55
2022/07/13 12:15:43;;;;;;;;;;;29.70;56.50;;;;;;4992667;28;20003;-56
2022/07/13 12:18:28;;;;;;;;;;;29.40;58.20;;;;;;4994894;28;19928;-58
2022/07/13 12:21:13;;;;;;;;;;;29.60;57.40;;;;;;5003764;28;19920;-55
2022/07/13 12:23:58;;;;;;;;;;;29.30;57.30;;;;;;5014673;28;19924;-57
2022/07/13 12:26:50;;;;;;;;;;;29.50;57.70;;;;;;4998849;28;20357;-52
2022/07/13 12:29:34;;;;;;;;;;;29.50;57.10;;;;;;4992872;28;19921;-53
2022/07/13 12:32:19;;;;;;;;;;;29.40;57.40;;;;;;4992770;28;19921;-52
2022/07/13 12:35:13;;;;;;;;;;;29.50;57.70;;;;;;4988928;28;19964;-54
2022/07/13 12:37:58;;;;;;;;;;;29.30;56.60;;;;;;4990404;28;20276;-53
2022/07/13 12:40:49;;;;;;;;;;;29.30;56.80;;;;;;4993925;28;19920;-48
2022/07/13 12:43:35;;;;;;;;;;;29.50;57.20;;;;;;4993898;28;20338;-50
2022/07/13 12:46:19;;;;;;;;;;;29.80;56.70;;;;;;4973773;28;19969;-55
2022/07/13 12:49:03;;;;;;;;;;;30.00;57.70;;;;;;4975971;28;19952;-51
2022/07/13 12:51:49;;;;;;;;;;;30.10;56.90;;;;;;4989146;28;19948;-57
2022/07/13 12:54:40;;;;;;;;;;;30.10;56.60;;;;;;4994306;28;19956;-54
2022/07/13 12:57:26;;;;;;;;;;;30.30;57.30;;;;;;4985829;28;19913;-49
2022/07/13 13:00:11;;;;;;;;;;;30.30;56.40;;;;;;4998371;28;20005;-52
2022/07/13 13:02:55;;;;;;;;;;;30.40;56.70;;;;;;4993487;28;19941;-57
2022/07/13 13:05:40;;;;;;;;;;;30.40;56.40;;;;;;4989223;28;19924;-56
2022/07/13 13:08:25;;;;;;;;;;;30.30;57.00;;;;;;4991457;28;19921;-52
2022/07/13 13:11:09;;;;;;;;;;;30.40;56.70;;;;;;5001041;28;20408;-50
2022/07/13 13:13:53;;;;;;;;;;;31.00;55.60;;;;;;4994428;28;19933;-51
2022/07/13 13:16:38;;;;;;;;;;;31.40;55.40;;;;;;4994545;28;20458;-50
2022/07/13 13:19:22;;;;;;;;;;;31.30;54.10;;;;;;4994983;28;20317;-51
2022/07/13 13:22:07;;;;;;;;;;;31.30;53.60;;;;;;4992208;28;19925;-51
2022/07/13 13:24:52;;;;;;;;;;;30.90;54.10;;;;;;4990785;28;19929;-53
2022/07/13 13:27:36;;;;;;;;;;;31.20;54.00;;;;;;4992023;28;19971;-53
2022/07/13 13:33:24;;;;;;;;;;;31.20;54.30;;;;;;4993033;28;20261;-63
2022/07/13 13:36:08;;;;;;;;;;;31.20;53.70;;;;;;4993498;28;20350;-52
2022/07/13 13:38:52;;;;;;;;;;;31.30;53.60;;;;;;5006237;28;20341;-53
2022/07/13 13:41:37;;;;;;;;;;;31.50;53.80;;;;;;4992697;28;19948;-50
2022/07/13 13:44:21;;;;;;;;;;;31.30;53.40;;;;;;4999229;28;19927;-56
2022/07/13 13:47:05;;;;;;;;;;;31.10;52.70;;;;;;4992248;28;20064;-56
2022/07/13 13:49:50;;;;;;;;;;;30.80;52.90;;;;;;4990119;28;20300;-52
2022/07/13 13:52:34;;;;;;;;;;;30.50;53.10;;;;;;4984116;28;19920;-52
2022/07/13 13:55:18;;;;;;;;;;;30.40;53.50;;;;;;4991260;28;20016;-51
2022/07/13 13:58:02;;;;;;;;;;;30.40;53.30;;;;;;4991263;28;19916;-52
2022/07/13 14:00:47;;;;;;;;;;;30.20;53.70;;;;;;4992983;28;19968;-53
2022/07/13 14:03:32;;;;;;;;;;;30.40;52.80;;;;;;4991048;28;20265;-53
2022/07/13 14:06:16;;;;;;;;;;;30.50;52.70;;;;;;4990546;28;20448;-51
2022/07/13 14:09:00;;;;;;;;;;;31.00;53.20;;;;;;4989941;28;19964;-53
2022/07/13 14:11:45;;;;;;;;;;;31.20;52.80;;;;;;4993167;28;19925;-53
2022/07/13 14:14:29;;;;;;;;;;;31.20;52.60;;;;;;4993115;28;19916;-52
2022/07/13 14:17:13;;;;;;;;;;;31.00;52.70;;;;;;4997525;28;19921;-46
2022/07/13 14:19:57;;;;;;;;;;;31.00;53.00;;;;;;4996805;28;19946;-49
2022/07/13 14:22:42;;;;;;;;;;;31.10;53.30;;;;;;4995750;28;19960;-51
2022/07/13 14:25:26;;;;;;;;;;;31.20;53.20;;;;;;4995061;28;19971;-52
2022/07/13 14:28:10;;;;;;;;;;;31.20;53.20;;;;;;4996003;28;19916;-51
2022/07/13 14:30:54;;;;;;;;;;;31.30;52.90;;;;;;4994515;28;19964;-50
2022/07/13 14:33:38;;;;;;;;;;;31.60;53.90;;;;;;5002539;28;19921;-55
2022/07/13 14:36:25;;;;;;;;;;;31.50;54.80;;;;;;5015505;28;19971;-58
2022/07/13 14:39:09;;;;;;;;;;;31.50;54.20;;;;;;5003867;28;19917;-55
2022/07/13 14:41:53;;;;;;;;;;;31.50;54.30;;;;;;4996712;28;19916;-54
2022/07/13 14:44:38;;;;;;;;;;;31.30;53.80;;;;;;5008754;28;20357;-54
2022/07/13 14:47:22;;;;;;;;;;;31.00;54.40;;;;;;4996473;28;19968;-52
2022/07/13 14:50:07;;;;;;;;;;;31.20;54.20;;;;;;4996600;28;20264;-50
2022/07/13 14:52:51;;;;;;;;;;;30.90;55.00;;;;;;4997541;28;19956;-53
2022/07/13 14:55:35;;;;;;;;;;;30.90;55.00;;;;;;5001918;28;19956;-55
2022/07/13 14:58:20;;;;;;;;;;;30.80;54.40;;;;;;4998724;28;19920;-56
2022/07/13 15:01:04;;;;;;;;;;;30.70;54.60;;;;;;4997268;28;19972;-54
2022/07/13 15:03:50;;;;;;;;;;;31.20;54.70;;;;;;5009067;28;19921;-57
2022/07/13 15:06:34;;;;;;;;;;;31.40;53.00;;;;;;5012645;28;20057;-58
2022/07/13 15:09:19;;;;;;;;;;;31.60;52.50;;;;;;5015608;28;20441;-53
2022/07/13 15:12:03;;;;;;;;;;;31.60;52.10;;;;;;4990958;28;20404;-56
2022/07/13 15:14:48;;;;;;;;;;;31.70;52.10;;;;;;4996297;28;19984;-54
2022/07/13 15:17:32;;;;;;;;;;;31.90;51.60;;;;;;4993465;28;19972;-57
2022/07/13 15:20:16;;;;;;;;;;;31.90;51.70;;;;;;5007775;28;19956;-57
2022/07/13 15:23:00;;;;;;;;;;;31.90;51.80;;;;;;4994953;28;19920;-56
2022/07/13 15:25:46;;;;;;;;;;;31.50;52.50;;;;;;4989648;28;19924;-52
2022/07/13 15:28:30;;;;;;;;;;;31.50;52.50;;;;;;4993234;28;19964;-54
2022/07/13 15:31:14;;;;;;;;;;;31.40;52.40;;;;;;4992825;28;19920;-53
2022/07/13 15:33:58;;;;;;;;;;;31.40;52.60;;;;;;4994640;28;19920;-56
2022/07/13 15:36:43;;;;;;;;;;;31.10;53.00;;;;;;4993627;28;19960;-55
2022/07/13 15:39:27;;;;;;;;;;;30.80;53.70;;;;;;4999950;28;19960;-55
2022/07/13 15:42:11;;;;;;;;;;;30.80;53.90;;;;;;4995360;28;20372;-56
2022/07/13 15:44:55;;;;;;;;;;;30.70;53.90;;;;;;4992842;28;19924;-53
2022/07/13 15:47:40;;;;;;;;;;;31.00;54.30;;;;;;4995101;28;19917;-54
2022/07/13 15:50:24;;;;;;;;;;;31.50;53.70;;;;;;4988236;28;20048;-53
2022/07/13 15:53:08;;;;;;;;;;;31.80;53.40;;;;;;5001763;28;19920;-57
2022/07/13 15:55:52;;;;;;;;;;;31.80;53.50;;;;;;4995643;28;19968;-54
2022/07/13 15:58:36;;;;;;;;;;;31.50;54.30;;;;;;5001138;28;19921;-53
2022/07/13 16:01:21;;;;;;;;;;;31.30;54.00;;;;;;4989366;28;19925;-55
2022/07/13 16:04:05;;;;;;;;;;;31.30;53.90;;;;;;4975455;28;19912;-55
2022/07/13 16:06:49;;;;;;;;;;;31.50;53.70;;;;;;5011865;28;19940;-51
2022/07/13 16:09:34;;;;;;;;;;;31.30;54.20;;;;;;5012972;28;19917;-52
2022/07/13 16:12:18;;;;;;;;;;;31.50;54.10;;;;;;4999319;28;19963;-52
2022/07/13 16:15:02;;;;;;;;;;;31.90;53.20;;;;;;4981126;28;19937;-55